Tampa, Florida
Traffic Map
Current Weather Conditions
Tampa, Florida
Clear
Clear
67°
Feels Like: 67°
Wind Chill: 67° Ceiling: Unl
Heat Index: 67° Visibility: 10mi
Dew Point: 57° Wind: 8mph
Humidity: 70% Direction: 260° (W)
Pressure: 30.17in Gusts: 0mph
Raw Report DataKTPA 310653Z 26007KT 10SM CLR 19/14 A3017 RMK AO2 SLP214 T01940139
Traffic Incident Summary
Active as of:
Severity:
Category:
InformationThere was an issue retrieving the traffic information for this location. Please try a different location or try again shortly.
Advertisements
Track Severe Weather on mobile